Terminal Aerodrome Forecast
Issued by NWS

Home | Current Version | Previous Version | Text Only | Print | Product List | Glossary On
Versions: 1 2 3 4 5 6 7 8 9 10 11 12 13
000
FTUS45 KVEF 272300
TAFDAG
TAF
KDAG 272320Z 2800/2824 07006KT P6SM SCT250
     FM280300 VRB05KT P6SM FEW250
     FM280900 27008KT P6SM SKC
     FM281600 VRB06KT P6SM SKC=

USA.gov is the U.S. government's official web portal to all federal, state and local government web resources and services.